Time;durP1;ratioP1;P1;durP2;ratioP2;P2;SDS_P1;SDS_P2;PMS_P1;PMS_P2;Temp;Humidity;BMP_temperature;BMP_pressure;BME280_temperature;BME280_humidity;BME280_pressure;Samples;Min_cycle;Max_cycle;Signal;HPM_P1;HPM_P2
2024/01/08 00:01:39;;;;;;;3.63;1.98;;;;;;;17.97;51.28;96665.59;10383468;28;20510;-29
2024/01/08 00:06:40;;;;;;;5.88;2.30;;;;;;;17.93;51.29;96663.88;10384888;28;20453;-29
2024/01/08 00:11:40;;;;;;;3.37;2.00;;;;;;;17.99;51.29;96678.28;10385100;28;20121;-30
2024/01/08 00:16:41;;;;;;;2.10;1.55;;;;;;;17.99;50.66;96668.97;10386668;28;20026;-29
2024/01/08 00:21:41;;;;;;;4.00;1.83;;;;;;;18.00;51.05;96675.72;10393201;28;20037;-29
2024/01/08 00:26:41;;;;;;;3.60;1.80;;;;;;;17.94;50.66;96669.81;10392405;28;20556;-29
2024/01/08 00:31:42;;;;;;;4.33;2.00;;;;;;;17.99;51.07;96683.34;10390231;28;20494;-29
2024/01/08 00:36:42;;;;;;;3.87;1.73;;;;;;;18.00;50.76;96685.84;10389463;28;20056;-30
2024/01/08 00:41:42;;;;;;;2.50;1.63;;;;;;;17.98;51.01;96686.72;10403203;28;20037;-29
2024/01/08 00:46:43;;;;;;;2.40;1.77;;;;;;;17.96;50.41;96688.38;10405397;28;20039;-29
2024/01/08 00:51:44;;;;;;;2.37;1.93;;;;;;;17.97;50.57;96687.53;10405761;28;20056;-29
2024/01/08 00:56:44;;;;;;;2.97;1.67;;;;;;;17.97;50.37;96682.47;10398547;28;20116;-30
2024/01/08 01:01:44;;;;;;;2.90;1.83;;;;;;;17.96;50.69;96675.72;10387271;28;20037;-30
2024/01/08 01:06:45;;;;;;;2.83;1.90;;;;;;;17.97;49.89;96679.94;10393405;28;20096;-29
2024/01/08 01:11:45;;;;;;;6.87;1.50;;;;;;;17.93;50.13;96685.88;10401079;28;20418;-30
2024/01/08 01:16:45;;;;;;;2.83;2.60;;;;;;;17.93;50.34;96699.34;10389857;28;20033;-29
2024/01/08 01:21:46;;;;;;;2.80;2.03;;;;;;;17.91;50.48;96700.22;10403072;28;20059;-29
2024/01/08 01:26:46;;;;;;;2.20;1.57;;;;;;;17.93;50.19;96703.59;10405022;28;20033;-29
2024/01/08 01:31:46;;;;;;;1.73;1.63;;;;;;;17.93;49.70;96713.72;10400709;28;20099;-30
2024/01/08 01:36:48;;;;;;;2.77;1.60;;;;;;;17.92;49.74;96717.09;10398254;28;20441;-30
2024/01/08 01:41:51;;;;;;;2.70;1.40;;;;;;;17.89;50.66;96725.53;10395211;28;20460;-29
2024/01/08 01:46:53;;;;;;;2.95;1.40;;;;;;;17.91;50.61;96725.53;10388089;28;20030;-29
2024/01/08 01:51:54;;;;;;;2.05;1.30;;;;;;;17.89;50.33;96727.22;10389537;28;20083;-29
2024/01/08 01:56:58;;;;;;;2.15;1.63;;;;;;;17.89;50.36;96715.41;10407107;28;20087;-31
2024/01/08 02:02:00;;;;;;;2.38;1.17;;;;;;;17.91;49.72;96721.31;10386748;28;20061;-29
2024/01/08 02:07:04;;;;;;;2.25;1.42;;;;;;;17.87;50.54;96713.69;10395461;28;20030;-29
2024/01/08 02:12:05;;;;;;;2.10;1.40;;;;;;;17.90;49.81;96723.84;10401341;28;20041;-29
2024/01/08 02:17:06;;;;;;;4.45;1.77;;;;;;;17.89;50.11;96722.13;10393229;28;20037;-30
2024/01/08 02:22:06;;;;;;;2.13;1.40;;;;;;;17.89;50.11;96724.66;10392346;28;20045;-31
2024/01/08 02:27:07;;;;;;;3.10;1.40;;;;;;;17.90;49.35;96723.84;10391545;28;20040;-29
2024/01/08 02:32:10;;;;;;;1.50;1.30;;;;;;;17.82;49.79;96705.25;10392331;28;20284;-29
2024/01/08 02:37:12;;;;;;;3.15;1.63;;;;;;;17.88;49.78;96717.91;10386626;28;20456;-31
2024/01/08 02:42:17;;;;;;;3.70;1.48;;;;;;;17.86;49.56;96719.63;10392950;28;20033;-29
2024/01/08 02:47:17;;;;;;;2.35;1.60;;;;;;;17.85;49.94;96707.78;10388555;28;20029;-29
2024/01/08 02:52:18;;;;;;;3.23;1.57;;;;;;;17.85;50.10;96716.25;10387572;28;20047;-29
2024/01/08 02:57:18;;;;;;;3.43;1.40;;;;;;;17.81;49.61;96708.63;10388979;28;20038;-29
2024/01/08 03:02:18;;;;;;;4.20;1.20;;;;;;;17.83;49.68;96710.31;10391918;28;20025;-29
2024/01/08 03:07:21;;;;;;;2.60;1.43;;;;;;;17.81;49.17;96703.53;10389363;28;20063;-29
2024/01/08 03:12:21;;;;;;;6.30;1.60;;;;;;;17.82;49.57;96707.81;10393494;28;20569;-29
2024/01/08 03:17:21;;;;;;;3.30;1.60;;;;;;;17.84;49.46;96708.63;10387222;28;20037;-29
2024/01/08 03:22:22;;;;;;;3.13;1.27;;;;;;;17.85;49.07;96710.31;10387374;28;20036;-29
2024/01/08 03:27:22;;;;;;;3.20;1.30;;;;;;;17.89;48.90;96714.53;10397754;28;20036;-29
2024/01/08 03:32:23;;;;;;;3.13;1.77;;;;;;;17.87;48.80;96718.75;10390557;28;20288;-29
2024/01/08 03:37:23;;;;;;;3.83;1.27;;;;;;;17.88;48.64;96720.44;10385172;28;20567;-30
2024/01/08 03:42:23;;;;;;;4.10;1.30;;;;;;;17.80;48.96;96707.78;10391679;28;20068;-29
2024/01/08 03:47:24;;;;;;;3.72;1.05;;;;;;;17.83;48.63;96717.09;10390858;28;20501;-29
2024/01/08 03:52:24;;;;;;;2.63;1.33;;;;;;;17.82;49.12;96720.47;10390520;28;20117;-31
2024/01/08 03:57:24;;;;;;;3.57;1.30;;;;;;;17.77;48.79;96734.78;10388105;28;20041;-29
2024/01/08 04:02:25;;;;;;;2.00;1.17;;;;;;;17.80;48.45;96743.25;10388741;28;20038;-29
2024/01/08 04:07:25;;;;;;;2.13;1.27;;;;;;;17.79;48.64;96735.63;10392235;28;20040;-29
2024/01/08 04:12:26;;;;;;;2.80;1.10;;;;;;;17.78;48.75;96726.34;10386122;28;20295;-30
2024/01/08 04:17:27;;;;;;;1.63;1.13;;;;;;;17.79;48.53;96730.56;10391237;28;20033;-30
2024/01/08 04:22:28;;;;;;;2.50;1.10;;;;;;;17.79;48.66;96738.16;10391514;28;20064;-30
2024/01/08 04:27:28;;;;;;;1.77;1.00;;;;;;;17.77;48.28;96740.72;10400408;28;20040;-29
2024/01/08 04:32:28;;;;;;;1.93;1.17;;;;;;;17.77;48.43;96744.91;10389794;28;20038;-29
2024/01/08 04:37:29;;;;;;;2.25;1.55;;;;;;;17.73;48.79;96745.75;10388354;28;20048;-29
2024/01/08 04:42:29;;;;;;;3.88;1.33;;;;;;;17.79;48.63;96756.75;10388736;28;20038;-29
2024/01/08 04:47:30;;;;;;;3.33;1.63;;;;;;;17.81;48.33;96759.25;10391248;28;20026;-29
2024/01/08 04:52:30;;;;;;;4.13;1.10;;;;;;;17.81;48.23;96757.59;10393725;28;20382;-30
2024/01/08 04:57:30;;;;;;;1.45;0.95;;;;;;;17.85;47.64;96755.91;10391251;28;20046;-31
2024/01/08 05:02:31;;;;;;;1.77;0.77;;;;;;;17.87;48.19;96754.22;10389633;28;20753;-30
2024/01/08 05:07:32;;;;;;;1.73;1.25;;;;;;;17.87;47.57;96752.56;10394227;28;20437;-30
2024/01/08 05:12:32;;;;;;;2.13;1.30;;;;;;;17.90;47.27;96759.31;10392680;28;20459;-29
2024/01/08 05:17:33;;;;;;;3.38;1.35;;;;;;;17.88;47.52;96760.97;10353203;28;20148;-29
2024/01/08 05:22:33;;;;;;;2.43;1.30;;;;;;;17.87;47.34;96749.16;10358738;28;20045;-29
2024/01/08 05:27:33;;;;;;;3.63;1.50;;;;;;;17.91;47.10;96763.53;10371996;28;20029;-29
2024/01/08 05:32:34;;;;;;;1.50;1.17;;;;;;;17.93;45.64;96760.13;10388318;28;20038;-29
2024/01/08 05:37:34;;;;;;;1.47;1.27;;;;;;;17.93;45.61;96761.84;10395247;28;20037;-29
2024/01/08 05:42:34;;;;;;;2.90;1.50;;;;;;;17.95;44.77;96757.63;10389748;28;20044;-29
2024/01/08 05:47:35;;;;;;;3.30;1.27;;;;;;;17.81;44.72;96760.13;10388317;28;20038;-29
2024/01/08 05:52:36;;;;;;;1.40;1.30;;;;;;;17.94;43.94;96781.25;10396495;28;20060;-29
2024/01/08 05:57:36;;;;;;;1.50;1.13;;;;;;;17.90;45.64;96775.34;10394398;28;20057;-30
2024/01/08 06:02:36;;;;;;;8.07;1.70;;;;;;;17.96;45.58;96787.16;10393348;28;20412;-29
2024/01/08 06:07:37;;;;;;;3.87;1.77;;;;;;;17.92;47.81;96782.97;10397411;28;20034;-29
2024/01/08 06:12:37;;;;;;;1.88;1.40;;;;;;;17.88;48.32;96792.22;10395654;28;20579;-30
2024/01/08 06:17:38;;;;;;;1.57;1.20;;;;;;;17.87;47.85;96787.16;10397030;28;20029;-29
2024/01/08 06:22:38;;;;;;;2.83;1.40;;;;;;;17.82;48.29;96793.91;10395094;28;20037;-29
2024/01/08 06:27:38;;;;;;;6.00;1.93;;;;;;;17.56;40.14;96798.00;10403980;28;20029;-30
2024/01/08 06:32:39;;;;;;;5.27;1.60;;;;;;;17.71;46.31;96798.06;10396590;28;20044;-30
2024/01/08 06:37:41;;;;;;;3.87;1.60;;;;;;;17.01;38.43;96795.94;10396353;28;20092;-29
2024/01/08 06:42:41;;;;;;;3.80;2.05;;;;;;;17.48;42.89;96799.66;10395794;28;20038;-29
2024/01/08 06:47:41;;;;;;;1.83;1.58;;;;;;;17.59;45.36;96796.31;10395032;28;20034;-29
2024/01/08 06:52:42;;;;;;;2.53;1.70;;;;;;;17.62;46.18;96793.81;10391108;28;20034;-29
2024/01/08 06:57:42;;;;;;;2.13;1.63;;;;;;;17.58;46.26;96792.09;10395833;28;20040;-30
2024/01/08 07:02:42;;;;;;;2.13;1.80;;;;;;;17.62;46.40;96798.03;10406767;28;20033;-29
2024/01/08 07:07:43;;;;;;;2.97;1.60;;;;;;;17.60;46.66;96804.75;10397429;28;20029;-29
2024/01/08 07:12:43;;;;;;;1.90;1.40;;;;;;;17.62;46.49;96803.09;10385624;28;20034;-29
2024/01/08 07:17:43;;;;;;;3.43;1.97;;;;;;;17.64;46.48;96802.25;10389303;28;20034;-29
2024/01/08 07:22:44;;;;;;;1.47;1.37;;;;;;;17.68;46.41;96810.72;10382354;28;20042;-29
2024/01/08 07:27:44;;;;;;;1.93;1.63;;;;;;;17.65;46.15;96815.78;10390151;28;20034;-29
2024/01/08 07:32:44;;;;;;;1.70;1.23;;;;;;;17.64;46.63;96811.53;10385376;28;20037;-29
2024/01/08 07:37:45;;;;;;;2.00;1.50;;;;;;;17.63;46.53;96809.84;10397878;28;20049;-30
2024/01/08 07:42:46;;;;;;;2.10;1.42;;;;;;;17.65;46.45;96815.78;10395414;28;20055;-29
2024/01/08 07:47:46;;;;;;;1.37;1.23;;;;;;;17.64;46.83;96816.59;10381888;28;20033;-29
2024/01/08 07:52:47;;;;;;;2.03;1.02;;;;;;;17.59;46.53;96808.97;10378757;28;20033;-31
2024/01/08 07:57:47;;;;;;;3.43;1.57;;;;;;;17.59;46.79;96815.75;10396398;28;20025;-29
2024/01/08 08:02:47;;;;;;;1.48;1.38;;;;;;;17.58;46.40;96821.66;10379551;28;20029;-29
2024/01/08 08:07:49;;;;;;;2.70;1.60;;;;;;;17.55;46.54;96822.47;10397545;28;20456;-29
2024/01/08 08:12:51;;;;;;;1.63;1.50;;;;;;;17.54;46.51;96825.84;10382764;28;20037;-29
2024/01/08 08:17:52;;;;;;;1.65;1.05;;;;;;;17.55;46.74;96831.72;10398465;28;20038;-30
2024/01/08 08:22:52;;;;;;;1.52;1.33;;;;;;;17.54;46.22;96828.38;10402197;28;20029;-29
2024/01/08 08:27:53;;;;;;;2.00;1.20;;;;;;;17.61;45.91;96839.38;10387665;28;20033;-30
2024/01/08 08:32:56;;;;;;;1.25;1.15;;;;;;;17.62;46.07;96833.47;10376135;28;20478;-32
2024/01/08 08:37:58;;;;;;;1.33;1.05;;;;;;;17.59;46.34;96849.47;10396415;28;20037;-30
2024/01/08 08:42:58;;;;;;;1.08;0.98;;;;;;;17.58;46.11;96849.50;10383913;28;20033;-29
2024/01/08 08:47:58;;;;;;;1.47;1.23;;;;;;;17.59;46.31;96846.13;10397811;28;20064;-29
2024/01/08 08:52:59;;;;;;;1.17;1.00;;;;;;;17.58;46.42;96852.03;10397713;28;20045;-30
2024/01/08 08:57:59;;;;;;;2.27;1.00;;;;;;;17.56;46.26;96843.56;10396278;28;20040;-29
2024/01/08 09:03:03;;;;;;;1.20;1.10;;;;;;;17.55;46.20;96860.44;10389760;28;20269;-30
2024/01/08 09:08:03;;;;;;;1.33;1.10;;;;;;;17.55;46.07;96867.16;10404252;28;20041;-29
2024/01/08 09:13:04;;;;;;;1.98;1.25;;;;;;;17.55;46.29;96862.97;10405731;28;20037;-29
2024/01/08 09:18:04;;;;;;;1.30;1.10;;;;;;;17.54;45.98;96865.47;10405186;28;20048;-29
2024/01/08 09:23:07;;;;;;;1.33;1.13;;;;;;;17.53;45.92;96876.44;10389373;28;20037;-30
2024/01/08 09:28:07;;;;;;;0.98;0.98;;;;;;;17.51;45.75;96878.13;10395735;28;20752;-29
2024/01/08 09:33:08;;;;;;;1.47;1.10;;;;;;;17.51;45.95;96883.19;10409230;28;20037;-29
2024/01/08 09:38:08;;;;;;;2.53;0.90;;;;;;;17.51;45.77;96880.66;10401332;28;20358;-30
2024/01/08 09:43:09;;;;;;;1.33;1.07;;;;;;;17.50;45.99;96894.16;10383511;28;20038;-29
2024/01/08 09:48:10;;;;;;;1.35;1.17;;;;;;;17.52;45.78;96892.47;10400935;28;20026;-29
2024/01/08 09:53:10;;;;;;;1.20;0.95;;;;;;;17.52;45.60;96892.47;10390824;28;20038;-29
2024/01/08 09:58:11;;;;;;;1.08;1.00;;;;;;;17.49;45.86;96898.34;10388599;28;20574;-30
2024/01/08 10:03:12;;;;;;;1.30;1.10;;;;;;;17.50;45.56;96891.63;10384089;28;20041;-29
2024/01/08 10:08:13;;;;;;;1.40;1.20;;;;;;;17.48;45.70;96883.19;10382735;28;20038;-29
2024/01/08 10:13:14;;;;;;;1.20;1.10;;;;;;;17.49;45.84;96887.41;10386322;28;20033;-29
2024/01/08 10:18:17;;;;;;;1.25;1.10;;;;;;;17.42;45.53;96880.59;10384009;28;20037;-29
2024/01/08 10:23:24;;;;;;;1.45;1.35;;;;;;;17.49;45.34;96877.28;10388985;28;20033;-29
2024/01/08 10:28:24;;;;;;;1.25;1.10;;;;;;;17.49;45.55;96872.22;10401903;28;20025;-29
2024/01/08 10:33:25;;;;;;;1.60;1.33;;;;;;;17.47;45.50;96868.81;10395399;28;20041;-29
2024/01/08 10:38:29;;;;;;;1.30;1.10;;;;;;;17.46;45.17;96872.19;10396931;28;20034;-30
2024/01/08 10:43:30;;;;;;;1.02;0.93;;;;;;;17.48;45.33;96871.34;10404506;28;20033;-29
2024/01/08 10:48:39;;;;;;;1.45;1.00;;;;;;;17.47;45.27;96863.75;10396204;28;20490;-29
2024/01/08 10:53:45;;;;;;;2.13;1.30;;;;;;;17.45;45.10;96865.44;10394472;28;20044;-29
2024/01/08 10:59:05;;;;;;;1.30;1.00;;;;;;;17.49;45.30;96862.09;10393619;28;20548;-29
2024/01/08 11:04:06;;;;;;;1.73;1.23;;;;;;;17.49;45.13;96862.09;10381369;28;20052;-29
2024/01/08 11:09:26;;;;;;;1.25;1.15;;;;;;;17.44;45.41;96868.81;10394029;28;20033;-30
2024/01/08 11:14:29;;;;;;;1.73;1.42;;;;;;;17.43;45.19;96862.91;10387606;28;20079;-30
2024/01/08 11:19:31;;;;;;;1.55;1.33;;;;;;;17.44;45.05;96862.06;10390374;28;20030;-29
2024/01/08 11:24:32;;;;;;;1.60;1.42;;;;;;;17.45;45.02;96860.38;10390089;28;20489;-31
2024/01/08 11:29:34;;;;;;;1.27;1.08;;;;;;;17.49;44.63;96852.78;10385191;28;20092;-30
2024/01/08 11:34:49;;;;;;;2.13;1.20;;;;;;;17.54;44.69;96857.88;10380742;28;20030;-29
2024/01/08 11:39:50;;;;;;;5.03;1.85;;;;;;;16.95;36.88;96852.41;10398954;28;20041;-29
2024/01/08 11:44:50;;;;;;;2.40;1.55;;;;;;;17.26;41.43;96853.47;10387248;28;20516;-28
2024/01/08 11:49:51;;;;;;;1.50;1.40;;;;;;;17.44;43.17;96854.47;10391526;28;20029;-29
2024/01/08 11:54:54;;;;;;;2.80;1.33;;;;;;;17.50;43.49;96851.97;10387265;28;20299;-29
2024/01/08 11:59:54;;;;;;;1.60;1.50;;;;;;;17.56;43.45;96849.47;10394565;28;20033;-30
2024/01/08 12:04:59;;;;;;;2.85;1.27;;;;;;;17.59;43.48;96848.66;10397491;28;20068;-29
2024/01/08 12:10:06;;;;;;;2.90;1.50;;;;;;;17.65;42.76;96851.22;10379660;28;20049;-30
2024/01/08 12:15:08;;;;;;;2.22;1.60;;;;;;;17.70;43.27;96842.81;10399680;28;20068;-29
2024/01/08 12:20:10;;;;;;;1.98;1.35;;;;;;;17.68;42.98;96843.63;10397191;28;20040;-29
2024/01/08 12:25:11;;;;;;;2.65;1.67;;;;;;;17.70;42.96;96841.94;10397523;28;20029;-31
2024/01/08 12:30:12;;;;;;;1.98;1.20;;;;;;;17.74;43.15;96838.59;10397962;28;20524;-29
2024/01/08 12:35:15;;;;;;;1.95;1.40;;;;;;;17.75;41.45;96841.13;10396184;28;20045;-29
2024/01/08 12:40:16;;;;;;;4.95;1.60;;;;;;;17.77;42.37;96836.06;10403036;28;20120;-30
2024/01/08 12:45:16;;;;;;;1.92;1.67;;;;;;;17.83;40.42;96829.34;10397763;28;20480;-30
2024/01/08 12:50:17;;;;;;;2.50;1.60;;;;;;;17.88;38.74;96840.34;10390403;28;20037;-30
2024/01/08 12:55:17;;;;;;;1.70;1.60;;;;;;;17.87;38.76;96826.00;10404482;28;20141;-29
2024/01/08 13:00:18;;;;;;;2.17;1.73;;;;;;;17.94;40.29;96835.31;10398530;28;20044;-29
2024/01/08 13:05:18;;;;;;;3.03;2.05;;;;;;;18.05;38.61;96840.41;10395845;28;20056;-29
2024/01/08 13:10:19;;;;;;;6.77;1.70;;;;;;;17.99;38.82;96851.38;10403106;28;20045;-29
2024/01/08 13:15:19;;;;;;;3.30;1.80;;;;;;;18.00;39.29;96845.44;10393230;28;20038;-29
2024/01/08 13:20:19;;;;;;;4.03;2.20;;;;;;;18.01;40.71;96848.84;10388091;28;20029;-29
2024/01/08 13:25:20;;;;;;;4.13;2.50;;;;;;;18.01;41.04;96849.69;10389569;28;20307;-29
2024/01/08 13:30:22;;;;;;;3.28;2.97;;;;;;;18.01;41.80;96848.84;10387429;28;20037;-30
2024/01/08 13:35:22;;;;;;;4.25;3.03;;;;;;;17.98;41.24;96859.81;10391766;28;20049;-29
2024/01/08 13:40:27;;;;;;;3.40;3.00;;;;;;;17.94;42.90;96859.78;10396783;28;20029;-30
2024/01/08 13:45:29;;;;;;;4.38;2.55;;;;;;;17.91;44.64;96863.16;10386418;28;20280;-29
2024/01/08 13:50:30;;;;;;;2.88;2.47;;;;;;;17.88;45.52;96868.22;10382664;28;20112;-29
2024/01/08 13:55:30;;;;;;;3.83;2.53;;;;;;;17.86;45.88;96874.97;10390024;28;20168;-29
2024/01/08 14:00:31;;;;;;;5.10;2.42;;;;;;;17.84;44.82;96880.84;10392080;28;20049;-29
2024/01/08 14:05:33;;;;;;;2.63;2.30;;;;;;;17.81;45.62;96880.81;10391630;28;20029;-30
2024/01/08 14:10:33;;;;;;;3.55;2.55;;;;;;;17.83;45.36;96890.13;10392845;28;20043;-30
2024/01/08 14:15:33;;;;;;;3.13;2.27;;;;;;;17.79;45.46;96910.34;10392970;28;20048;-29
2024/01/08 14:20:34;;;;;;;4.27;2.57;;;;;;;17.77;46.13;96902.78;10394562;28;20037;-29
2024/01/08 14:25:34;;;;;;;4.93;3.00;;;;;;;17.75;45.09;96904.44;10385775;28;20037;-29
2024/01/08 14:30:35;;;;;;;3.45;3.15;;;;;;;17.75;45.37;96909.50;10398274;28;20038;-29
2024/01/08 14:35:35;;;;;;;3.37;2.63;;;;;;;17.73;45.67;96901.03;10389166;28;20098;-30
2024/01/08 14:40:38;;;;;;;3.33;2.97;;;;;;;17.73;45.42;96905.28;10390522;28;20045;-29
2024/01/08 14:45:38;;;;;;;3.10;2.58;;;;;;;17.70;45.33;96897.66;10386314;28;20105;-29
2024/01/08 14:50:38;;;;;;;2.97;2.30;;;;;;;17.67;44.35;96902.72;10383811;28;20168;-29
2024/01/08 14:55:39;;;;;;;3.00;2.70;;;;;;;17.73;42.23;96901.03;10391403;28;20042;-29
2024/01/08 15:00:40;;;;;;;3.30;3.00;;;;;;;17.74;43.25;96904.44;10391455;28;20034;-29
2024/01/08 15:05:41;;;;;;;3.85;2.58;;;;;;;17.70;43.66;96907.78;10391448;28;20030;-30
2024/01/08 15:10:44;;;;;;;3.70;2.65;;;;;;;17.78;43.48;96913.72;10388822;28;20452;-30
2024/01/08 15:15:47;;;;;;;3.65;2.25;;;;;;;17.74;43.49;96915.41;10391003;28;20116;-29
2024/01/08 15:20:48;;;;;;;5.85;3.33;;;;;;;17.76;42.58;96917.94;10390916;28;20038;-30
2024/01/08 15:25:48;;;;;;;4.57;3.13;;;;;;;17.79;42.71;96923.03;10386124;28;20033;-29
2024/01/08 15:30:48;;;;;;;4.57;3.38;;;;;;;17.83;42.88;96922.22;10387641;28;20037;-30
2024/01/08 15:35:49;;;;;;;7.10;3.40;;;;;;;17.82;42.56;96928.13;10389906;28;20037;-29
2024/01/08 15:40:49;;;;;;;6.07;3.53;;;;;;;17.85;42.53;96933.19;10390903;28;20045;-29
2024/01/08 15:45:49;;;;;;;4.05;3.05;;;;;;;17.86;43.72;96939.94;10390955;28;20092;-30
2024/01/08 15:50:50;;;;;;;6.77;2.83;;;;;;;17.82;44.24;96938.25;10386341;28;20045;-29
2024/01/08 15:55:50;;;;;;;5.57;3.10;;;;;;;17.79;43.88;96933.16;10386738;28;20038;-29
2024/01/08 16:00:51;;;;;;;3.25;2.80;;;;;;;17.77;44.20;96942.44;10384626;28;20065;-29
2024/01/08 16:05:51;;;;;;;4.20;3.03;;;;;;;17.78;43.46;96944.13;10395552;28;20029;-29
2024/01/08 16:10:52;;;;;;;4.77;2.80;;;;;;;17.77;44.04;96945.81;10390111;28;20288;-29
2024/01/08 16:15:52;;;;;;;3.37;3.07;;;;;;;17.74;42.61;96939.91;10391640;28;20076;-29
2024/01/08 16:20:52;;;;;;;3.40;3.00;;;;;;;17.81;42.92;96956.78;10388952;28;20440;-29
2024/01/08 16:25:53;;;;;;;3.10;2.60;;;;;;;17.84;42.36;96951.75;10387113;28;20091;-29
2024/01/08 16:30:54;;;;;;;4.32;2.97;;;;;;;17.85;42.27;96958.53;10389480;28;20049;-30
2024/01/08 16:35:54;;;;;;;2.85;2.65;;;;;;;17.85;41.73;96953.47;10387994;28;20461;-30
2024/01/08 16:40:57;;;;;;;4.27;2.63;;;;;;;17.84;42.22;96959.38;10388104;28;20034;-29
2024/01/08 16:46:00;;;;;;;2.90;2.65;;;;;;;17.83;43.48;96968.63;10387960;28;20160;-29
2024/01/08 16:51:08;;;;;;;2.85;2.55;;;;;;;17.86;42.91;96976.28;10389380;28;20034;-29
2024/01/08 16:56:08;;;;;;;3.30;3.00;;;;;;;17.90;40.89;96977.16;10384267;28;20503;-30
2024/01/08 17:01:08;;;;;;;3.30;2.70;;;;;;;17.93;42.39;96977.16;10382902;28;20046;-29
2024/01/08 17:06:09;;;;;;;3.05;2.75;;;;;;;17.86;41.98;96973.75;10388361;28;20033;-31
2024/01/08 17:11:10;;;;;;;2.67;2.38;;;;;;;17.88;39.91;96983.84;10386362;28;20030;-29
2024/01/08 17:16:10;;;;;;;4.50;3.13;;;;;;;17.91;40.99;96987.25;10395061;28;20041;-29
2024/01/08 17:21:10;;;;;;;3.80;2.28;;;;;;;17.97;40.06;96986.44;10392661;28;20100;-29
2024/01/08 17:26:11;;;;;;;3.83;2.47;;;;;;;17.95;40.03;96981.41;10393932;28;20037;-29
2024/01/08 17:31:12;;;;;;;3.67;2.83;;;;;;;17.99;39.99;96988.16;10390818;28;20041;-29
2024/01/08 17:36:12;;;;;;;3.63;2.95;;;;;;;17.97;41.66;96984.78;10389136;28;20038;-29
2024/01/08 17:41:12;;;;;;;3.53;2.83;;;;;;;17.90;43.13;96992.34;10390618;28;20041;-29
2024/01/08 17:46:13;;;;;;;2.37;2.17;;;;;;;17.89;43.86;97001.59;10390256;28;20056;-30
2024/01/08 17:51:13;;;;;;;2.73;2.53;;;;;;;17.85;42.61;96999.91;10391868;28;20044;-29
2024/01/08 17:56:13;;;;;;;3.60;2.30;;;;;;;17.88;42.76;97022.72;10391211;28;20416;-30
2024/01/08 18:01:16;;;;;;;2.50;2.30;;;;;;;17.91;41.27;97014.28;10395809;28;20280;-30
2024/01/08 18:06:17;;;;;;;3.72;2.13;;;;;;;17.95;42.72;97021.91;10392565;28;20041;-29
2024/01/08 18:11:18;;;;;;;6.57;2.60;;;;;;;17.95;42.34;97021.91;10385995;28;20073;-29
2024/01/08 18:16:18;;;;;;;3.03;2.15;;;;;;;17.94;42.22;97020.22;10394721;28;20033;-30
2024/01/08 18:21:25;;;;;;;2.77;2.20;;;;;;;17.95;41.30;97016.00;10393013;28;20068;-29
2024/01/08 18:26:26;;;;;;;3.70;2.25;;;;;;;17.97;42.26;97021.91;10396630;28;20285;-30
2024/01/08 18:31:26;;;;;;;2.47;2.25;;;;;;;17.95;42.80;97037.13;10390263;28;20501;-29
2024/01/08 18:36:27;;;;;;;4.35;2.22;;;;;;;17.88;42.93;97025.25;10393877;28;20041;-29
2024/01/08 18:41:27;;;;;;;3.80;3.35;;;;;;;17.93;43.13;97031.16;10392757;28;20061;-29
2024/01/08 18:46:28;;;;;;;3.70;1.97;;;;;;;17.90;43.73;97043.81;10394230;28;20386;-29
2024/01/08 18:51:28;;;;;;;3.63;2.43;;;;;;;17.87;44.36;97036.22;10391975;28;20041;-29
2024/01/08 18:56:29;;;;;;;4.95;2.33;;;;;;;17.85;44.34;97040.44;10394038;28;20533;-29
2024/01/08 19:01:29;;;;;;;4.95;2.55;;;;;;;17.88;42.06;97044.66;10397612;28;20077;-30
2024/01/08 19:06:30;;;;;;;4.67;2.57;;;;;;;17.89;43.11;97047.19;10392743;28;20112;-29
2024/01/08 19:11:30;;;;;;;4.03;2.28;;;;;;;17.89;43.98;97041.28;10387930;28;20042;-30
2024/01/08 19:16:31;;;;;;;2.80;2.50;;;;;;;17.89;41.33;97042.13;10394496;28;20440;-30
2024/01/08 19:21:31;;;;;;;4.50;2.73;;;;;;;17.63;42.29;97037.69;10391669;28;20041;-29
2024/01/08 19:26:31;;;;;;;3.93;2.43;;;;;;;17.87;40.34;97035.34;10394753;28;20037;-29
2024/01/08 19:31:32;;;;;;;4.10;2.43;;;;;;;17.91;39.88;97042.16;10391283;28;20272;-29
2024/01/08 19:36:33;;;;;;;3.80;2.83;;;;;;;17.97;41.71;97040.50;10395888;28;20421;-29
2024/01/08 19:41:34;;;;;;;4.27;2.80;;;;;;;17.99;41.56;97043.88;10394514;28;20036;-29
2024/01/08 19:46:34;;;;;;;6.13;2.50;;;;;;;17.92;42.18;97028.66;10394805;28;20775;-30
2024/01/08 19:51:34;;;;;;;5.33;2.77;;;;;;;17.96;41.15;97037.94;10388984;28;20337;-29
2024/01/08 19:56:37;;;;;;;3.30;2.80;;;;;;;17.97;41.14;97043.03;10391093;28;20292;-29
2024/01/08 20:01:38;;;;;;;3.60;2.90;;;;;;;17.98;40.72;97041.38;10377416;28;20022;-29
2024/01/08 20:06:39;;;;;;;4.35;2.38;;;;;;;18.03;39.65;97044.75;10381995;28;20034;-30
2024/01/08 20:11:39;;;;;;;9.10;2.55;;;;;;;18.74;39.02;97038.44;10381971;28;20410;-30
2024/01/08 20:16:40;;;;;;;5.93;2.40;;;;;;;18.26;40.91;97023.78;10387787;28;20092;-32
2024/01/08 20:21:40;;;;;;;2.43;2.23;;;;;;;18.24;41.30;97039.84;10379014;28;20768;-31
2024/01/08 20:26:40;;;;;;;11.03;2.83;;;;;;;18.12;41.00;97044.81;10394807;28;20028;-30
2024/01/08 20:31:41;;;;;;;2.80;2.47;;;;;;;18.12;38.73;97054.97;10381426;28;20045;-31
2024/01/08 20:36:42;;;;;;;6.68;2.78;;;;;;;18.11;37.27;97053.25;10387434;28;20067;-29
2024/01/08 20:41:43;;;;;;;6.00;2.83;;;;;;;18.04;37.47;97032.13;10388208;28;20052;-32
2024/01/08 20:46:43;;;;;;;4.53;2.50;;;;;;;18.03;38.25;97038.03;10391840;28;20108;-33
2024/01/08 20:51:43;;;;;;;6.03;2.97;;;;;;;18.02;37.56;97031.28;10394757;28;20533;-31
2024/01/08 20:56:44;;;;;;;2.97;2.50;;;;;;;18.08;38.32;97043.13;10400652;28;20694;-31
2024/01/08 21:01:44;;;;;;;2.13;1.87;;;;;;;18.07;38.88;97032.13;10389490;28;20636;-32
2024/01/08 21:06:44;;;;;;;3.43;2.90;;;;;;;18.07;39.28;97026.22;10396177;28;20045;-31
2024/01/08 21:11:45;;;;;;;4.47;2.90;;;;;;;18.09;39.06;97027.06;10379717;28;20300;-34
2024/01/08 21:16:45;;;;;;;3.92;2.60;;;;;;;18.07;40.45;97037.19;10389083;28;20700;-31
2024/01/08 21:21:46;;;;;;;3.30;2.43;;;;;;;18.05;41.01;97027.88;10394690;28;20045;-31
2024/01/08 21:26:48;;;;;;;4.23;2.70;;;;;;;18.05;39.67;97028.75;10385540;28;20432;-33
2024/01/08 21:31:49;;;;;;;3.50;2.30;;;;;;;18.03;39.89;97025.34;10386012;28;20068;-32
2024/01/08 21:36:49;;;;;;;3.20;2.87;;;;;;;18.02;39.90;97032.94;10376967;28;20146;-32
2024/01/08 21:41:50;;;;;;;2.60;2.30;;;;;;;17.96;40.46;97028.69;10382293;28;20021;-31
2024/01/08 21:46:50;;;;;;;4.50;2.50;;;;;;;18.02;40.50;97038.00;10380545;28;20514;-32
2024/01/08 21:51:50;;;;;;;3.00;2.67;;;;;;;17.97;41.14;97044.72;10384660;28;20045;-31
2024/01/08 21:56:51;;;;;;;2.83;2.30;;;;;;;17.99;39.23;97043.88;10387449;28;20045;-31
2024/01/08 22:01:52;;;;;;;5.57;2.93;;;;;;;17.98;39.69;97032.06;10402404;28;20043;-31
2024/01/08 22:06:53;;;;;;;4.15;2.75;;;;;;;18.00;39.37;97032.09;10386544;28;20124;-31
2024/01/08 22:11:53;;;;;;;3.60;2.60;;;;;;;18.01;39.24;97031.25;10394588;28;20025;-31
2024/01/08 22:16:54;;;;;;;2.83;2.40;;;;;;;18.04;40.04;97034.66;10389966;28;20527;-31
2024/01/08 22:21:55;;;;;;;2.95;2.30;;;;;;;18.04;40.39;97042.25;10382993;28;20117;-33
2024/01/08 22:26:55;;;;;;;3.60;2.80;;;;;;;17.98;39.53;97052.34;10389585;28;20038;-31
2024/01/08 22:31:55;;;;;;;5.27;2.60;;;;;;;18.01;38.44;97047.28;10374630;28;20387;-30
2024/01/08 22:36:56;;;;;;;3.17;2.70;;;;;;;18.02;39.54;97053.19;10381128;28;20304;-32
2024/01/08 22:41:56;;;;;;;2.93;2.43;;;;;;;18.04;40.55;97049.00;10393407;28;20300;-32
2024/01/08 22:46:57;;;;;;;3.53;2.23;;;;;;;18.04;40.68;97051.53;10374249;28;20029;-32
2024/01/08 22:51:57;;;;;;;2.90;2.50;;;;;;;18.04;41.21;97051.53;10378939;28;20087;-31
2024/01/08 22:56:58;;;;;;;4.20;2.47;;;;;;;18.04;38.95;97051.53;10386703;28;20453;-32
2024/01/08 23:01:58;;;;;;;3.13;2.57;;;;;;;18.03;39.49;97055.75;10374128;28;20044;-31
2024/01/08 23:06:58;;;;;;;3.15;2.85;;;;;;;18.00;41.41;97049.81;10378258;28;20057;-31
2024/01/08 23:11:59;;;;;;;2.90;2.50;;;;;;;18.04;39.93;97056.59;10384776;28;20695;-32
2024/01/08 23:17:00;;;;;;;2.97;2.67;;;;;;;18.04;40.44;97057.44;10380703;28;20037;-32